Time;durP1;ratioP1;P1;durP2;ratioP2;P2;SDS_P1;SDS_P2;PMS_P1;PMS_P2;Temp;Humidity;BMP_temperature;BMP_pressure;BME280_temperature;BME280_humidity;BME280_pressure;Samples;Min_cycle;Max_cycle;Signal;HPM_P1;HPM_P2
2021/04/03 00:00:43;;;;;;;3.70;2.10;;;9.60;51.50;;;;;;5043800;28;20439;-45
2021/04/03 00:03:11;;;;;;;7.07;3.00;;;9.70;51.70;;;;;;5041567;28;20446;-45
2021/04/03 00:05:38;;;;;;;2.20;1.87;;;9.60;51.70;;;;;;5045292;28;20455;-45
2021/04/03 00:08:10;;;;;;;5.57;2.40;;;9.70;52.00;;;;;;5043411;28;20990;-45
2021/04/03 00:10:48;;;;;;;5.83;2.23;;;9.70;51.60;;;;;;5044870;28;21247;-45
2021/04/03 00:13:16;;;;;;;5.83;2.13;;;9.60;51.50;;;;;;5045510;28;20442;-45
2021/04/03 00:15:43;;;;;;;3.07;2.17;;;9.60;51.50;;;;;;5045181;28;20530;-45
2021/04/03 00:18:10;;;;;;;4.27;2.27;;;9.70;51.80;;;;;;5043717;28;20486;-45
2021/04/03 00:20:37;;;;;;;3.50;2.33;;;9.60;51.60;;;;;;5040934;28;20979;-45
2021/04/03 00:23:03;;;;;;;2.73;1.90;;;9.50;51.90;;;;;;5040374;28;20960;-45
2021/04/03 00:25:31;;;;;;;3.80;2.53;;;9.60;52.10;;;;;;5042947;28;20450;-45
2021/04/03 00:27:58;;;;;;;3.90;2.50;;;9.60;51.80;;;;;;5045658;28;20471;-45
2021/04/03 00:30:24;;;;;;;4.10;2.13;;;9.60;51.90;;;;;;5041594;28;20506;-45
2021/04/03 00:32:53;;;;;;;6.03;2.40;;;9.60;52.40;;;;;;5042775;28;21018;-45
2021/04/03 00:35:25;;;;;;;3.23;2.70;;;9.60;52.60;;;;;;5041547;28;20459;-45
2021/04/03 00:37:52;;;;;;;4.10;2.63;;;9.70;52.30;;;;;;5041754;28;20530;-45
2021/04/03 00:40:25;;;;;;;3.70;2.33;;;9.70;52.10;;;;;;5042039;28;20458;-45
2021/04/03 00:42:52;;;;;;;3.33;2.20;;;9.70;52.10;;;;;;5043760;28;20814;-45
2021/04/03 00:45:20;;;;;;;3.00;2.30;;;9.60;52.10;;;;;;5041201;28;20455;-45
2021/04/03 00:47:46;;;;;;;3.53;2.60;;;9.50;52.40;;;;;;5044310;28;20898;-45
2021/04/03 00:50:16;;;;;;;6.20;2.80;;;9.50;52.50;;;;;;5043889;28;20459;-45
2021/04/03 00:52:42;;;;;;;4.30;2.20;;;9.50;52.90;;;;;;5039627;28;20447;-45
2021/04/03 00:55:10;;;;;;;5.53;2.70;;;9.60;53.00;;;;;;5043420;28;21033;-45
2021/04/03 00:57:37;;;;;;;4.27;2.80;;;9.50;52.90;;;;;;5043727;28;20722;-45
2021/04/03 01:00:05;;;;;;;5.73;3.10;;;9.50;53.30;;;;;;5048447;28;20443;-45
2021/04/03 01:02:31;;;;;;;7.13;3.53;;;9.50;53.30;;;;;;5044936;28;20469;-45
2021/04/03 01:04:59;;;;;;;4.13;3.70;;;9.60;53.40;;;;;;5044813;28;20477;-45
2021/04/03 01:07:25;;;;;;;6.40;3.83;;;9.50;53.60;;;;;;5040847;28;20962;-45
2021/04/03 01:09:51;;;;;;;6.03;4.00;;;9.60;54.00;;;;;;5042937;28;20553;-45
2021/04/03 01:12:55;;;;;;;7.93;4.60;;;9.50;54.00;;;;;;5062869;28;20450;-45
2021/04/03 01:15:31;;;;;;;5.10;4.03;;;9.50;54.60;;;;;;5040148;28;20811;-45
2021/04/03 01:18:13;;;;;;;7.13;5.03;;;9.50;54.40;;;;;;5044609;28;20485;-45
2021/04/03 01:20:48;;;;;;;9.37;5.47;;;9.40;54.50;;;;;;5046144;28;20442;-45
2021/04/03 01:24:19;;;;;;;6.60;4.33;;;9.40;55.00;;;;;;5059676;28;20818;-45
2021/04/03 01:27:08;;;;;;;7.43;4.73;;;9.40;55.20;;;;;;5003902;28;20459;-45
2021/04/03 01:30:13;;;;;;;6.37;4.60;;;9.30;55.50;;;;;;5046900;28;20524;-45
2021/04/03 01:32:49;;;;;;;8.60;4.97;;;9.30;55.70;;;;;;5043629;28;20477;-45
2021/04/03 01:35:39;;;;;;;7.23;5.37;;;9.30;56.00;;;;;;5043615;28;20473;-45
2021/04/03 01:38:28;;;;;;;7.90;4.97;;;9.30;56.10;;;;;;5043893;28;21083;-45
2021/04/03 01:40:55;;;;;;;9.23;5.93;;;9.20;56.10;;;;;;5041905;28;20982;-45
2021/04/03 01:43:28;;;;;;;14.20;5.43;;;9.30;56.40;;;;;;5046744;28;20451;-45
2021/04/03 01:45:56;;;;;;;10.03;6.57;;;9.20;56.40;;;;;;5043110;28;20458;-45
2021/04/03 01:48:24;;;;;;;7.23;5.20;;;9.20;56.50;;;;;;5048158;28;20470;-45
2021/04/03 01:50:50;;;;;;;7.63;4.47;;;9.20;56.70;;;;;;5043041;28;20530;-45
2021/04/03 01:53:18;;;;;;;7.17;5.70;;;9.20;56.90;;;;;;5039457;28;20462;-45
2021/04/03 01:55:46;;;;;;;6.13;5.13;;;9.30;56.60;;;;;;5048051;28;20447;-45
2021/04/03 01:58:12;;;;;;;9.80;4.77;;;9.30;56.50;;;;;;5041997;28;20490;-44
2021/04/03 02:00:40;;;;;;;5.70;4.63;;;9.30;56.60;;;;;;5044568;28;20450;-45
2021/04/03 02:03:08;;;;;;;5.23;4.20;;;9.30;56.70;;;;;;5042161;28;21126;-45
2021/04/03 02:05:38;;;;;;;13.93;5.90;;;9.30;57.00;;;;;;5044866;28;20443;-45
2021/04/03 02:08:12;;;;;;;7.47;4.93;;;9.20;57.30;;;;;;5040516;28;20432;-43
2021/04/03 02:10:39;;;;;;;7.40;5.10;;;9.20;57.40;;;;;;5044283;28;20461;-44
2021/04/03 02:13:06;;;;;;;10.10;4.57;;;9.20;57.30;;;;;;5042738;28;20448;-43
2021/04/03 02:15:33;;;;;;;10.30;4.50;;;9.30;57.30;;;;;;5043388;28;20466;-44
2021/04/03 02:18:05;;;;;;;7.50;5.47;;;9.30;57.10;;;;;;5042243;28;20925;-44
2021/04/03 02:20:31;;;;;;;7.47;4.23;;;9.20;57.40;;;;;;5041402;28;20459;-44
2021/04/03 02:22:59;;;;;;;6.03;5.33;;;9.20;57.50;;;;;;5045052;28;20451;-44
2021/04/03 02:25:26;;;;;;;6.17;4.70;;;9.20;57.50;;;;;;5044591;28;20460;-45
2021/04/03 02:27:52;;;;;;;6.40;4.80;;;9.20;57.40;;;;;;5058537;28;20447;-43
2021/04/03 02:30:23;;;;;;;5.67;5.10;;;9.20;57.40;;;;;;5057295;28;20448;-44
2021/04/03 02:32:50;;;;;;;12.33;4.60;;;9.10;57.50;;;;;;5042753;28;20446;-43
2021/04/03 02:35:18;;;;;;;8.80;4.83;;;9.10;57.50;;;;;;5040593;28;20455;-44
2021/04/03 02:37:47;;;;;;;6.00;5.30;;;9.10;57.50;;;;;;5039836;28;20442;-44
2021/04/03 02:40:17;;;;;;;8.63;4.20;;;9.20;58.30;;;;;;5044666;28;20767;-45
2021/04/03 02:43:13;;;;;;;7.63;5.50;;;9.20;57.50;;;;;;5043733;28;20528;-44
2021/04/03 02:45:48;;;;;;;6.47;4.13;;;9.10;57.70;;;;;;5042598;28;20461;-45
2021/04/03 02:48:19;;;;;;;6.87;4.13;;;9.10;58.00;;;;;;5044343;28;20445;-45
2021/04/03 02:50:51;;;;;;;8.20;4.23;;;9.10;58.20;;;;;;5046293;28;20455;-45
2021/04/03 02:53:20;;;;;;;6.70;4.90;;;9.10;57.90;;;;;;5044902;28;20446;-45
2021/04/03 02:55:54;;;;;;;8.23;6.43;;;9.10;58.20;;;;;;5039859;28;20451;-45
2021/04/03 02:58:22;;;;;;;6.97;4.80;;;9.00;58.30;;;;;;5058515;28;20489;-45
2021/04/03 03:00:56;;;;;;;6.27;4.30;;;9.00;58.60;;;;;;5045190;28;21127;-45
2021/04/03 03:03:24;;;;;;;7.83;5.40;;;9.00;58.60;;;;;;5040834;28;20450;-45
2021/04/03 03:05:57;;;;;;;7.33;4.50;;;9.00;58.60;;;;;;5042477;28;20443;-45
2021/04/03 03:08:25;;;;;;;8.27;5.23;;;9.00;58.70;;;;;;5056381;28;20443;-45
2021/04/03 03:10:53;;;;;;;7.10;4.53;;;9.00;58.60;;;;;;5036443;28;20446;-45
2021/04/03 03:13:20;;;;;;;8.60;5.33;;;9.00;58.50;;;;;;5036202;28;20459;-45
2021/04/03 03:15:48;;;;;;;11.17;5.37;;;9.00;58.50;;;;;;5043161;28;20442;-44
2021/04/03 03:18:15;;;;;;;9.17;5.00;;;8.90;58.70;;;;;;5043824;28;20483;-45
2021/04/03 03:20:43;;;;;;;5.13;4.63;;;8.90;59.00;;;;;;5042543;28;20447;-45
2021/04/03 03:23:11;;;;;;;10.23;4.83;;;8.90;59.20;;;;;;5039991;28;20929;-45
2021/04/03 03:25:41;;;;;;;11.10;5.23;;;8.90;59.10;;;;;;5042853;28;20446;-45
2021/04/03 03:28:07;;;;;;;6.80;4.77;;;8.90;59.00;;;;;;5042444;28;20450;-45
2021/04/03 03:30:34;;;;;;;10.17;6.40;;;8.90;59.10;;;;;;5045954;28;20456;-45
2021/04/03 03:33:01;;;;;;;5.50;4.73;;;8.90;59.10;;;;;;5040264;28;20467;-45
2021/04/03 03:35:30;;;;;;;9.33;4.30;;;8.80;59.40;;;;;;5051306;28;20461;-45
2021/04/03 03:37:57;;;;;;;10.40;5.00;;;8.80;59.40;;;;;;5043569;28;20483;-45
2021/04/03 03:40:25;;;;;;;8.27;4.60;;;8.70;59.80;;;;;;5041589;28;20985;-45
2021/04/03 03:42:51;;;;;;;9.40;4.93;;;8.70;60.00;;;;;;5040283;28;20938;-45
2021/04/03 03:45:20;;;;;;;10.83;5.50;;;8.70;60.00;;;;;;5041481;28;21006;-45
2021/04/03 03:47:46;;;;;;;9.90;6.00;;;8.70;60.00;;;;;;5043090;28;20465;-45
2021/04/03 03:50:13;;;;;;;7.00;5.50;;;8.60;60.00;;;;;;5046239;28;20461;-44
2021/04/03 03:52:40;;;;;;;7.17;4.63;;;8.60;60.20;;;;;;5044405;28;21003;-45
2021/04/03 03:55:07;;;;;;;8.27;5.00;;;8.60;60.40;;;;;;5060740;28;20455;-45
2021/04/03 03:57:33;;;;;;;9.77;5.50;;;8.50;60.50;;;;;;5044074;28;20529;-44
2021/04/03 03:59:59;;;;;;;11.10;5.73;;;8.50;60.50;;;;;;5041527;28;20487;-45
2021/04/03 04:02:26;;;;;;;6.10;5.00;;;8.50;60.70;;;;;;5042302;28;20462;-45
2021/04/03 04:04:52;;;;;;;6.80;4.73;;;8.50;60.70;;;;;;5037675;28;20533;-45
2021/04/03 04:07:18;;;;;;;8.40;6.23;;;8.50;60.70;;;;;;5038491;28;20491;-44
2021/04/03 04:09:44;;;;;;;10.80;6.27;;;8.40;60.90;;;;;;5040706;28;20451;-45
2021/04/03 04:12:11;;;;;;;8.50;5.60;;;8.40;61.10;;;;;;5042166;28;20447;-45
2021/04/03 04:14:37;;;;;;;9.90;6.20;;;8.30;61.30;;;;;;5044249;28;20446;-44
2021/04/03 04:17:04;;;;;;;9.77;5.90;;;8.30;61.50;;;;;;5043678;28;20481;-45
2021/04/03 04:19:31;;;;;;;8.37;5.30;;;8.30;61.70;;;;;;5039173;28;20499;-45
2021/04/03 04:22:00;;;;;;;9.43;5.90;;;8.30;61.90;;;;;;5041345;28;20447;-45
2021/04/03 04:24:26;;;;;;;13.30;5.80;;;8.30;62.00;;;;;;5044048;28;20475;-45
2021/04/03 04:26:53;;;;;;;11.27;5.80;;;8.20;62.00;;;;;;5041435;28;20451;-45
2021/04/03 04:29:19;;;;;;;7.63;5.23;;;8.20;62.30;;;;;;5041556;28;20462;-45
2021/04/03 04:31:45;;;;;;;12.83;6.07;;;8.20;62.30;;;;;;5039983;28;20748;-44
2021/04/03 04:34:13;;;;;;;9.40;5.17;;;8.20;62.40;;;;;;5045791;28;20451;-45
2021/04/03 04:36:40;;;;;;;14.17;6.70;;;8.20;62.50;;;;;;5046221;28;20467;-44
2021/04/03 04:39:06;;;;;;;11.90;6.87;;;8.20;62.60;;;;;;5059617;28;20589;-45
2021/04/03 04:41:32;;;;;;;8.90;5.97;;;8.10;62.70;;;;;;5034846;28;20458;-45
2021/04/03 04:43:59;;;;;;;10.70;6.47;;;8.10;62.90;;;;;;5045672;28;22062;-45
2021/04/03 04:46:25;;;;;;;13.27;6.90;;;8.10;63.30;;;;;;5044049;28;20457;-45
2021/04/03 04:48:51;;;;;;;8.60;5.90;;;8.10;63.40;;;;;;5043503;28;20446;-45
2021/04/03 04:51:18;;;;;;;18.00;6.97;;;8.20;63.80;;;;;;5046727;28;20447;-44
2021/04/03 04:53:45;;;;;;;9.57;6.77;;;8.10;63.80;;;;;;5043344;28;20458;-45
2021/04/03 04:56:13;;;;;;;13.00;6.80;;;8.20;64.20;;;;;;5044868;28;20447;-44
2021/04/03 04:58:39;;;;;;;10.77;7.20;;;8.10;64.10;;;;;;5047321;28;20482;-45
2021/04/03 05:01:05;;;;;;;10.00;7.87;;;8.10;64.20;;;;;;5041631;28;20448;-45
2021/04/03 05:03:32;;;;;;;16.00;8.10;;;8.10;64.00;;;;;;5043729;28;20465;-44
2021/04/03 05:05:59;;;;;;;13.13;6.70;;;8.20;64.10;;;;;;5048248;28;20439;-44
2021/04/03 05:08:25;;;;;;;10.70;7.47;;;8.20;64.10;;;;;;5059890;28;20796;-45
2021/04/03 05:10:51;;;;;;;9.77;7.80;;;8.20;64.50;;;;;;5047482;28;20538;-45
2021/04/03 05:13:17;;;;;;;13.90;6.93;;;8.30;64.30;;;;;;5041971;28;20944;-45
2021/04/03 05:15:44;;;;;;;11.30;7.77;;;8.30;64.30;;;;;;5047978;28;20808;-45
2021/04/03 05:18:10;;;;;;;12.77;8.57;;;8.30;64.40;;;;;;5039467;28;21017;-45
2021/04/03 05:20:36;;;;;;;14.50;7.23;;;8.30;64.40;;;;;;5043079;28;20446;-45
2021/04/03 05:23:02;;;;;;;10.80;7.53;;;8.30;64.60;;;;;;5038981;28;20456;-45
2021/04/03 05:25:29;;;;;;;13.63;8.30;;;8.30;64.60;;;;;;5029432;28;20974;-45
2021/04/03 05:27:56;;;;;;;10.60;7.37;;;8.30;64.70;;;;;;5042740;28;20478;-45
2021/04/03 05:30:24;;;;;;;11.67;7.13;;;8.30;64.60;;;;;;5042318;28;20448;-44
2021/04/03 05:32:50;;;;;;;11.93;7.87;;;8.30;64.40;;;;;;5051415;28;20450;-44
2021/04/03 05:35:16;;;;;;;13.30;6.73;;;8.30;64.40;;;;;;5040371;28;20675;-45
2021/04/03 05:37:44;;;;;;;11.30;7.37;;;8.30;64.40;;;;;;5047947;28;20466;-45
2021/04/03 05:40:10;;;;;;;8.90;7.20;;;8.40;64.60;;;;;;5044635;28;21192;-44
2021/04/03 05:42:38;;;;;;;11.23;6.30;;;8.40;64.40;;;;;;5048106;28;20462;-45
2021/04/03 05:45:05;;;;;;;8.77;5.30;;;8.50;64.40;;;;;;5044696;28;20455;-45
2021/04/03 05:47:33;;;;;;;11.17;5.10;;;8.60;63.20;;;;;;5044552;28;20459;-44
2021/04/03 05:50:03;;;;;;;9.83;5.00;;;8.60;62.70;;;;;;5047270;28;20547;-45
2021/04/03 05:52:30;;;;;;;10.67;5.03;;;8.60;62.20;;;;;;5041966;28;20517;-45
2021/04/03 05:54:56;;;;;;;12.83;5.23;;;8.60;62.10;;;;;;5044167;28;20446;-45
2021/04/03 05:57:25;;;;;;;7.60;5.20;;;8.70;61.60;;;;;;5042056;28;20849;-44
2021/04/03 05:59:51;;;;;;;6.93;4.60;;;8.70;61.50;;;;;;5043069;28;20523;-45
2021/04/03 06:02:17;;;;;;;13.27;5.53;;;8.80;61.20;;;;;;5054789;28;20462;-44
2021/04/03 06:04:43;;;;;;;7.33;4.10;;;8.80;60.80;;;;;;5041461;28;20988;-44
2021/04/03 06:07:10;;;;;;;7.53;4.17;;;8.80;60.50;;;;;;5039106;28;20480;-45
2021/04/03 06:09:37;;;;;;;6.20;4.20;;;8.80;60.20;;;;;;5044598;28;21127;-45
2021/04/03 06:12:04;;;;;;;6.33;3.90;;;8.80;59.90;;;;;;5038214;28;20464;-45
2021/04/03 06:14:37;;;;;;;8.03;4.40;;;8.70;59.70;;;;;;5039697;28;20455;-44
2021/04/03 06:17:04;;;;;;;5.47;3.40;;;8.70;60.00;;;;;;5044491;28;20509;-45
2021/04/03 06:19:31;;;;;;;7.73;4.43;;;8.70;60.40;;;;;;5043023;28;20497;-45
2021/04/03 06:22:03;;;;;;;7.23;4.23;;;8.70;59.90;;;;;;5042038;28;20451;-45
2021/04/03 06:24:33;;;;;;;8.10;3.67;;;8.70;59.70;;;;;;5043325;28;20487;-45
2021/04/03 06:27:06;;;;;;;6.70;3.47;;;8.60;59.60;;;;;;5043149;28;20800;-45
2021/04/03 06:29:48;;;;;;;5.37;2.80;;;8.70;59.40;;;;;;5041195;28;20443;-45
2021/04/03 06:32:20;;;;;;;8.00;3.87;;;8.70;59.20;;;;;;5040810;28;20522;-44
2021/04/03 06:34:48;;;;;;;5.30;3.40;;;8.60;59.00;;;;;;5042469;28;20455;-45
2021/04/03 06:37:33;;;;;;;5.97;3.20;;;8.70;59.20;;;;;;5043001;28;20538;-44
2021/04/03 06:40:03;;;;;;;5.60;3.10;;;8.70;58.80;;;;;;5042402;28;20494;-45
2021/04/03 06:42:42;;;;;;;5.10;3.07;;;8.70;58.10;;;;;;5045194;28;21069;-44
2021/04/03 06:45:19;;;;;;;5.87;2.70;;;8.70;57.80;;;;;;5045987;28;20478;-45
2021/04/03 06:47:50;;;;;;;7.67;2.67;;;8.70;57.60;;;;;;5045054;28;20461;-45
2021/04/03 06:50:19;;;;;;;4.57;2.60;;;8.70;57.20;;;;;;5041126;28;20848;-44
2021/04/03 06:52:46;;;;;;;7.83;3.60;;;8.70;57.80;;;;;;5040187;28;21031;-45
2021/04/03 06:55:16;;;;;;;7.87;3.13;;;8.70;57.40;;;;;;5039257;28;21180;-45
2021/04/03 06:57:43;;;;;;;9.27;3.60;;;8.70;57.00;;;;;;5037135;28;21020;-45
2021/04/03 07:00:12;;;;;;;9.20;2.90;;;8.70;57.10;;;;;;5041896;28;20498;-44
2021/04/03 07:02:44;;;;;;;6.53;2.57;;;8.70;57.30;;;;;;5055152;28;20936;-45
2021/04/03 07:05:13;;;;;;;7.27;2.90;;;8.70;57.50;;;;;;5038730;28;20542;-45
2021/04/03 07:07:42;;;;;;;6.83;2.60;;;8.70;57.80;;;;;;5039076;28;20457;-45
2021/04/03 07:10:11;;;;;;;5.47;2.30;;;8.80;57.40;;;;;;5037182;28;21030;-45
2021/04/03 07:12:39;;;;;;;6.50;2.10;;;8.80;57.30;;;;;;5046190;28;20947;-45
2021/04/03 07:15:11;;;;;;;8.30;2.60;;;8.90;57.40;;;;;;5038966;28;20470;-45
2021/04/03 07:17:44;;;;;;;6.80;2.70;;;9.00;55.70;;;;;;5039140;28;20478;-45
2021/04/03 07:20:16;;;;;;;5.80;2.60;;;9.10;55.30;;;;;;5039275;28;20483;-45
2021/04/03 07:23:11;;;;;;;9.20;2.20;;;9.10;55.00;;;;;;5035653;28;20524;-45
2021/04/03 07:25:43;;;;;;;4.40;2.53;;;9.20;55.40;;;;;;5042602;28;21044;-44
2021/04/03 07:28:10;;;;;;;6.90;3.10;;;9.20;55.40;;;;;;5057188;28;20549;-45
2021/04/03 07:30:38;;;;;;;8.30;3.33;;;9.30;55.30;;;;;;5041319;28;20448;-45
2021/04/03 07:33:23;;;;;;;7.13;2.40;;;9.40;55.00;;;;;;5043447;28;20856;-44
2021/04/03 07:35:55;;;;;;;9.03;2.67;;;9.50;55.20;;;;;;5039643;28;20835;-45
2021/04/03 07:38:22;;;;;;;7.33;3.00;;;9.70;54.90;;;;;;5040398;28;20452;-44
2021/04/03 07:40:54;;;;;;;6.07;3.63;;;9.90;54.30;;;;;;5041131;28;20439;-45
2021/04/03 07:43:31;;;;;;;4.20;2.70;;;10.00;54.00;;;;;;5042585;28;20454;-45
2021/04/03 07:46:09;;;;;;;5.17;2.53;;;10.20;52.90;;;;;;5040295;28;21000;-45
2021/04/03 07:48:38;;;;;;;8.20;2.57;;;10.40;52.60;;;;;;5043795;28;20995;-45
2021/04/03 07:51:10;;;;;;;5.97;2.50;;;10.60;51.90;;;;;;5041060;28;20819;-45
2021/04/03 07:53:45;;;;;;;5.43;2.50;;;10.70;51.90;;;;;;5041678;28;20442;-45
2021/04/03 07:56:14;;;;;;;3.67;2.10;;;10.80;51.10;;;;;;5042937;28;20473;-45
2021/04/03 07:58:57;;;;;;;8.83;4.13;;;11.00;51.30;;;;;;5044704;28;20486;-45
2021/04/03 08:01:47;;;;;;;5.67;2.87;;;11.10;50.50;;;;;;5051050;28;20812;-45
2021/04/03 08:04:14;;;;;;;12.47;3.67;;;11.30;50.20;;;;;;5038869;28;20554;-45
2021/04/03 08:06:43;;;;;;;7.57;3.50;;;11.40;49.30;;;;;;5041733;28;20467;-45
2021/04/03 08:09:17;;;;;;;8.37;4.10;;;11.50;49.50;;;;;;5042846;28;20458;-45
2021/04/03 08:11:47;;;;;;;7.33;3.50;;;11.60;49.20;;;;;;5037001;28;20801;-45
2021/04/03 08:14:15;;;;;;;7.80;3.10;;;11.80;49.20;;;;;;5040514;28;20513;-45
2021/04/03 08:16:44;;;;;;;6.87;2.73;;;12.00;48.10;;;;;;5040372;28;20485;-45
2021/04/03 08:19:10;;;;;;;8.13;2.87;;;12.20;48.20;;;;;;5039922;28;21079;-44
2021/04/03 08:21:46;;;;;;;7.97;3.00;;;12.40;47.50;;;;;;5043325;28;20450;-45
2021/04/03 08:24:14;;;;;;;4.63;2.57;;;12.60;47.30;;;;;;5039220;28;20490;-45
2021/04/03 08:26:41;;;;;;;8.87;3.87;;;12.70;47.10;;;;;;5036009;28;20455;-45
2021/04/03 08:29:18;;;;;;;6.53;2.87;;;12.90;47.00;;;;;;5058838;28;20484;-45
2021/04/03 08:31:48;;;;;;;4.60;3.27;;;13.00;46.50;;;;;;5041838;28;20455;-45
2021/04/03 08:34:14;;;;;;;6.80;2.40;;;13.30;45.50;;;;;;5040335;28;20481;-45
2021/04/03 08:36:41;;;;;;;6.13;2.80;;;13.50;45.40;;;;;;5043598;28;20822;-45
2021/04/03 08:39:10;;;;;;;3.87;2.57;;;13.70;44.70;;;;;;5043323;28;20483;-45
2021/04/03 08:41:39;;;;;;;8.20;2.93;;;13.90;44.30;;;;;;5043446;28;20455;-44
2021/04/03 08:44:18;;;;;;;8.13;2.40;;;14.10;44.20;;;;;;5041368;28;20447;-44
2021/04/03 08:46:47;;;;;;;11.20;3.70;;;14.30;42.90;;;;;;5039626;28;20465;-44
2021/04/03 08:49:22;;;;;;;4.83;2.90;;;14.40;43.00;;;;;;5043825;28;20438;-43
2021/04/03 08:51:49;;;;;;;5.40;2.97;;;14.60;42.20;;;;;;5046082;28;20990;-44
2021/04/03 08:54:15;;;;;;;5.87;2.73;;;14.80;41.90;;;;;;5030674;28;20452;-44
2021/04/03 08:56:42;;;;;;;7.20;2.70;;;15.00;41.50;;;;;;5040423;28;20470;-44
2021/04/03 08:59:14;;;;;;;6.50;3.47;;;15.30;41.60;;;;;;5041508;28;20482;-44
2021/04/03 09:01:44;;;;;;;4.93;3.13;;;15.50;40.60;;;;;;5044632;28;21082;-44
2021/04/03 09:04:11;;;;;;;3.90;1.97;;;15.60;39.80;;;;;;5045520;28;20829;-44
2021/04/03 09:06:51;;;;;;;5.63;2.03;;;15.90;39.70;;;;;;5041297;28;20813;-44
2021/04/03 09:09:19;;;;;;;3.50;1.70;;;16.10;39.30;;;;;;5059794;28;20800;-45
2021/04/03 09:12:07;;;;;;;3.33;2.17;;;16.20;38.60;;;;;;5040431;28;20450;-44
2021/04/03 09:14:38;;;;;;;3.93;2.00;;;16.50;38.10;;;;;;5039312;28;20858;-44
2021/04/03 09:17:17;;;;;;;7.80;2.63;;;16.60;37.40;;;;;;5038081;28;20483;-44
2021/04/03 09:19:44;;;;;;;3.03;2.10;;;16.80;38.00;;;;;;5044188;28;20887;-44
2021/04/03 09:22:18;;;;;;;5.37;2.40;;;17.00;38.00;;;;;;5046320;28;20450;-44
2021/04/03 09:24:58;;;;;;;6.60;2.50;;;17.10;37.50;;;;;;5047640;28;20548;-44
2021/04/03 09:27:26;;;;;;;5.47;2.20;;;17.30;37.10;;;;;;5043363;28;20450;-44
2021/04/03 09:30:04;;;;;;;5.70;2.33;;;17.60;37.10;;;;;;5041721;28;20489;-44
2021/04/03 09:32:44;;;;;;;10.33;2.40;;;17.80;36.90;;;;;;5040146;28;20896;-44
2021/04/03 09:35:14;;;;;;;8.87;2.30;;;18.10;36.50;;;;;;5045490;28;20454;-44
2021/04/03 09:37:41;;;;;;;5.80;2.10;;;18.30;35.90;;;;;;5047411;28;20944;-44
2021/04/03 09:40:08;;;;;;;6.00;2.20;;;18.60;35.70;;;;;;5062775;28;20486;-44
2021/04/03 09:42:35;;;;;;;5.33;2.53;;;18.80;35.10;;;;;;5047773;28;20447;-44
2021/04/03 09:45:05;;;;;;;8.13;3.47;;;18.90;34.80;;;;;;5041006;28;20454;-44
2021/04/03 09:47:32;;;;;;;5.90;2.03;;;19.00;35.00;;;;;;5040770;28;20857;-44
2021/04/03 09:49:58;;;;;;;5.60;2.60;;;19.10;35.30;;;;;;5043524;28;20473;-44
2021/04/03 09:52:26;;;;;;;7.90;2.77;;;19.20;34.70;;;;;;5058777;28;20466;-44
2021/04/03 09:54:52;;;;;;;5.80;3.00;;;19.40;34.50;;;;;;5041277;28;20509;-44
2021/04/03 09:57:20;;;;;;;3.67;2.10;;;19.60;34.10;;;;;;5045701;28;20549;-44
2021/04/03 09:59:46;;;;;;;4.13;2.90;;;19.80;33.30;;;;;;5043577;28;20568;-44
2021/04/03 10:02:13;;;;;;;4.77;2.30;;;19.80;33.60;;;;;;5045468;28;20566;-44
2021/04/03 10:04:40;;;;;;;5.07;2.37;;;19.90;33.90;;;;;;5056845;28;20458;-44
2021/04/03 10:07:06;;;;;;;7.43;2.23;;;20.10;33.70;;;;;;5058061;28;20468;-44
2021/04/03 10:09:32;;;;;;;8.53;2.40;;;20.30;33.30;;;;;;5044235;28;20829;-44
2021/04/03 10:11:59;;;;;;;10.60;3.30;;;20.60;33.40;;;;;;5044988;28;20457;-44
2021/04/03 10:14:25;;;;;;;3.20;2.20;;;20.80;32.60;;;;;;5047012;28;20453;-44
2021/04/03 10:17:01;;;;;;;11.27;3.00;;;20.90;31.60;;;;;;5046063;28;20475;-44
2021/04/03 10:19:28;;;;;;;5.03;2.40;;;21.20;31.60;;;;;;5046516;28;20512;-45
2021/04/03 10:21:54;;;;;;;7.00;2.70;;;21.40;31.80;;;;;;5043128;28;20532;-44
2021/04/03 10:24:20;;;;;;;8.07;2.70;;;21.70;31.80;;;;;;5043795;28;20463;-44
2021/04/03 10:26:46;;;;;;;5.30;2.57;;;22.00;31.00;;;;;;5044631;28;20923;-44
2021/04/03 10:29:13;;;;;;;4.27;1.87;;;22.00;31.10;;;;;;5044033;28;20462;-44
2021/04/03 10:31:39;;;;;;;4.87;2.30;;;21.90;30.60;;;;;;5042128;28;20800;-44
2021/04/03 10:34:06;;;;;;;8.50;2.97;;;21.70;30.40;;;;;;5043398;28;20452;-44
2021/04/03 10:36:32;;;;;;;3.13;2.30;;;21.00;30.50;;;;;;5040390;28;20565;-44
2021/04/03 10:38:58;;;;;;;6.97;2.30;;;20.50;31.70;;;;;;5044541;28;20487;-44
2021/04/03 10:41:24;;;;;;;3.20;2.00;;;20.40;32.00;;;;;;5039456;28;20451;-44
2021/04/03 10:43:50;;;;;;;12.80;3.90;;;20.40;31.60;;;;;;5046681;28;20455;-44
2021/04/03 10:46:17;;;;;;;5.47;3.20;;;20.60;32.00;;;;;;5037139;28;20461;-44
2021/04/03 10:48:43;;;;;;;4.07;2.83;;;21.00;31.40;;;;;;5041725;28;20462;-44
2021/04/03 10:51:09;;;;;;;6.47;2.50;;;21.30;31.10;;;;;;5037594;28;20455;-44
2021/04/03 10:53:35;;;;;;;3.60;2.20;;;21.60;31.00;;;;;;5042019;28;20542;-44
2021/04/03 10:56:02;;;;;;;5.00;2.23;;;21.70;30.40;;;;;;5043481;28;20549;-44
2021/04/03 10:58:28;;;;;;;3.20;2.63;;;21.80;30.70;;;;;;5042238;28;20458;-44
2021/04/03 11:00:56;;;;;;;4.10;2.30;;;21.80;30.50;;;;;;5053167;28;20547;-44
2021/04/03 11:03:23;;;;;;;4.00;1.90;;;21.80;30.20;;;;;;5038943;28;20477;-44
2021/04/03 11:05:49;;;;;;;3.87;2.10;;;21.70;30.20;;;;;;5038300;28;20458;-44
2021/04/03 11:08:16;;;;;;;7.17;2.60;;;21.80;30.20;;;;;;5044600;28;20454;-44
2021/04/03 11:10:42;;;;;;;4.20;2.40;;;21.80;30.00;;;;;;5047758;28;20451;-44
2021/04/03 11:13:08;;;;;;;4.27;2.23;;;21.90;30.60;;;;;;5044178;28;20545;-43
2021/04/03 11:15:35;;;;;;;9.23;2.37;;;21.90;30.20;;;;;;5046887;28;20473;-43
2021/04/03 11:18:01;;;;;;;5.03;2.07;;;21.90;30.00;;;;;;5060329;28;20479;-46
2021/04/03 11:20:28;;;;;;;9.93;2.67;;;21.50;30.10;;;;;;5044722;28;20487;-45
2021/04/03 11:22:54;;;;;;;5.60;2.50;;;21.10;31.00;;;;;;5044073;28;20469;-45
2021/04/03 11:25:21;;;;;;;3.77;1.90;;;20.70;31.10;;;;;;5041888;28;20545;-45
2021/04/03 11:27:47;;;;;;;4.30;1.80;;;20.20;32.10;;;;;;5041334;28;20856;-45
2021/04/03 11:30:14;;;;;;;2.73;1.90;;;19.90;32.50;;;;;;5039519;28;21202;-45
2021/04/03 11:32:45;;;;;;;7.20;2.10;;;19.70;32.50;;;;;;5035909;28;20491;-45
2021/04/03 11:35:13;;;;;;;5.93;2.43;;;19.80;32.60;;;;;;5040237;28;20475;-45
2021/04/03 11:37:40;;;;;;;4.57;2.53;;;20.00;32.80;;;;;;5036873;28;20577;-44
2021/04/03 11:40:08;;;;;;;4.40;1.70;;;20.00;31.60;;;;;;5044956;28;20995;-45
2021/04/03 11:42:36;;;;;;;3.00;1.77;;;19.80;31.40;;;;;;5039642;28;20450;-43
2021/04/03 11:45:04;;;;;;;3.37;1.53;;;19.60;31.70;;;;;;5038974;28;20968;-45
2021/04/03 11:47:30;;;;;;;2.70;1.60;;;19.30;32.10;;;;;;5039131;28;20903;-45
2021/04/03 11:49:58;;;;;;;3.27;1.73;;;18.90;32.90;;;;;;5040603;28;20558;-44
2021/04/03 11:52:27;;;;;;;3.43;2.13;;;18.60;32.90;;;;;;5042916;28;20462;-45
2021/04/03 11:54:54;;;;;;;3.87;1.47;;;18.50;32.80;;;;;;5042634;28;20556;-45
2021/04/03 11:57:20;;;;;;;1.53;1.43;;;18.50;32.60;;;;;;5056063;28;20534;-45
2021/04/03 11:59:47;;;;;;;2.20;1.43;;;18.60;32.60;;;;;;5041046;28;20521;-45
2021/04/03 12:02:13;;;;;;;3.53;1.40;;;18.80;32.60;;;;;;5039736;28;20468;-45
2021/04/03 12:04:40;;;;;;;3.03;1.37;;;18.90;32.30;;;;;;5043802;28;20447;-45
2021/04/03 12:07:06;;;;;;;2.43;1.27;;;18.90;32.30;;;;;;5041680;28;20470;-45
2021/04/03 12:09:33;;;;;;;3.07;1.43;;;18.90;32.90;;;;;;5045243;28;20473;-45
2021/04/03 12:12:00;;;;;;;3.13;1.30;;;18.90;32.40;;;;;;5042629;28;20447;-45
2021/04/03 12:14:27;;;;;;;3.30;1.50;;;18.70;32.50;;;;;;5044043;28;20458;-45
2021/04/03 12:16:53;;;;;;;3.10;1.57;;;18.60;32.90;;;;;;5036821;28;20479;-46
2021/04/03 12:19:19;;;;;;;2.20;1.00;;;18.40;33.10;;;;;;5040196;28;20486;-45
2021/04/03 12:21:46;;;;;;;3.57;1.10;;;18.20;32.40;;;;;;5035442;28;20454;-42
2021/04/03 12:24:12;;;;;;;2.87;1.67;;;17.90;32.80;;;;;;5044281;28;20459;-43
2021/04/03 12:26:38;;;;;;;3.03;1.70;;;17.70;33.50;;;;;;5041069;28;20454;-43
2021/04/03 12:29:07;;;;;;;2.93;1.50;;;17.50;33.60;;;;;;5041188;28;20541;-43
2021/04/03 12:31:33;;;;;;;1.10;0.90;;;17.30;33.00;;;;;;5043079;28;20558;-43
2021/04/03 12:34:00;;;;;;;1.87;1.17;;;17.20;33.40;;;;;;5043725;28;20494;-43
2021/04/03 12:36:26;;;;;;;1.20;0.77;;;17.00;31.40;;;;;;5039336;28;20493;-43
2021/04/03 12:38:53;;;;;;;2.50;1.03;;;16.90;32.10;;;;;;5039627;28;20980;-42
2021/04/03 12:41:19;;;;;;;2.63;0.93;;;16.90;32.10;;;;;;5061470;28;20469;-43
2021/04/03 12:43:45;;;;;;;6.43;1.70;;;17.00;31.80;;;;;;5042919;28;20830;-43
2021/04/03 12:46:11;;;;;;;4.27;1.10;;;17.10;31.30;;;;;;5042535;28;20527;-43
2021/04/03 12:48:38;;;;;;;2.53;1.30;;;17.10;31.80;;;;;;5044055;28;20530;-43
2021/04/03 12:51:05;;;;;;;3.27;1.23;;;17.10;31.90;;;;;;5040899;28;21053;-43
2021/04/03 12:53:31;;;;;;;1.43;0.93;;;17.00;32.00;;;;;;5044332;28;20557;-43
2021/04/03 12:55:58;;;;;;;2.47;1.53;;;16.90;32.80;;;;;;5049047;28;20464;-43
2021/04/03 12:58:25;;;;;;;13.90;2.43;;;17.10;32.60;;;;;;5042097;28;20458;-43
2021/04/03 13:00:52;;;;;;;4.83;2.30;;;17.20;31.90;;;;;;5047494;28;20517;-41